Flomaton, Alabama
Current Conditions -  °F | °C
As of 3:56 AM on Sunday 26 Oct 2014 (Local Time) from KNSE Reporting Station
Clear Clear  
Wind Chill: 53°   Ceiling: Unl
Heat Index: 53°   Visibility: 10mi
Dew Point: 50°   Wind: 5mph
Humidity: 89%   Direction: 280°W
Pressure: 30.02"   Gusts: NA
Location:  31°N, 87.26°W
Report Text: KNSE 260856Z AUTO 28004KT 10SM CLR 12/10 A3002 RMK AO2 SLP150 T01170100 58007 $
Loading
Personal Weather Stations






























Interactive Weather Map
Tropical Storm Tracking
New forecast layout! Learn more

10-Day Weather Forecast

Advertisements
Track Severe Weather on mobile